createdAt,value
2023-12-23T00:01:17.893Z,5.27
2023-12-23T00:02:51.871Z,5.15
2023-12-23T00:04:25.280Z,5.06
2023-12-23T00:05:57.819Z,4.99
2023-12-23T00:07:31.115Z,4.99
2023-12-23T00:09:03.360Z,4.97
2023-12-23T00:10:36.665Z,4.84
2023-12-23T00:12:10.224Z,4.91
2023-12-23T00:13:43.603Z,4.81
2023-12-23T00:15:15.918Z,4.80
2023-12-23T00:16:49.403Z,4.79
2023-12-23T00:18:23.479Z,4.81
2023-12-23T00:19:57.904Z,4.82
2023-12-23T00:21:31.347Z,4.61
2023-12-23T00:23:04.769Z,4.86
2023-12-23T00:24:37.906Z,4.88
2023-12-23T00:26:11.229Z,4.90
2023-12-23T00:27:48.506Z,4.88
2023-12-23T00:29:21.869Z,4.74
2023-12-23T00:30:54.594Z,4.80
2023-12-23T00:32:27.856Z,4.76
2023-12-23T00:34:01.641Z,4.72
2023-12-23T00:35:34.917Z,4.64
2023-12-23T00:37:07.773Z,4.68
2023-12-23T00:38:40.981Z,4.65
2023-12-23T00:40:13.695Z,4.64
2023-12-23T00:41:46.948Z,4.63
2023-12-23T00:43:19.469Z,4.62
2023-12-23T00:44:52.797Z,4.49
2023-12-23T00:46:25.317Z,4.64
2023-12-23T00:47:58.750Z,4.65
2023-12-23T00:49:32.897Z,4.65
2023-12-23T00:51:08.730Z,4.53
2023-12-23T00:52:40.982Z,4.28
2023-12-23T00:54:14.335Z,4.54
2023-12-23T00:55:46.759Z,4.53
2023-12-23T00:57:20.035Z,4.55
2023-12-23T00:58:52.290Z,4.56
2023-12-23T01:00:25.673Z,4.58
2023-12-23T01:01:58.187Z,4.60
2023-12-23T01:03:31.483Z,4.71
2023-12-23T01:05:06.039Z,4.72
2023-12-23T01:06:39.411Z,4.75
2023-12-23T01:08:11.965Z,4.74
2023-12-23T01:09:45.212Z,4.71
2023-12-23T01:11:17.725Z,4.72
2023-12-23T01:12:50.914Z,4.71
2023-12-23T01:14:24.617Z,4.67
2023-12-23T01:15:56.861Z,4.65
2023-12-23T01:17:30.149Z,4.66
2023-12-23T01:19:02.434Z,4.67
2023-12-23T01:20:39.602Z,4.71
2023-12-23T01:22:11.869Z,4.72
2023-12-23T01:23:45.114Z,4.73
2023-12-23T01:25:17.393Z,4.76
2023-12-23T01:26:51.227Z,4.75
2023-12-23T01:28:23.450Z,4.72
2023-12-23T01:29:57.760Z,4.70
2023-12-23T01:31:31.053Z,4.66
2023-12-23T01:33:05.048Z,4.64
2023-12-23T01:34:39.616Z,4.64
2023-12-23T01:36:13.249Z,4.58
2023-12-23T01:37:46.901Z,4.62
2023-12-23T01:39:19.955Z,4.62
2023-12-23T01:40:53.290Z,4.61
2023-12-23T01:42:25.630Z,4.54
2023-12-23T01:43:58.975Z,4.50
2023-12-23T01:45:32.385Z,4.59
2023-12-23T01:47:08.272Z,4.50
2023-12-23T01:48:43.935Z,4.45
2023-12-23T01:50:20.428Z,4.44
2023-12-23T01:51:56.256Z,4.29
2023-12-23T01:53:30.046Z,4.52
2023-12-23T01:55:02.637Z,4.49
2023-12-23T01:56:36.658Z,4.52
2023-12-23T01:58:09.143Z,4.50
2023-12-23T01:59:42.471Z,4.49
2023-12-23T02:01:14.883Z,3.95
2023-12-23T02:02:49.426Z,4.38
2023-12-23T02:04:22.581Z,4.29
2023-12-23T02:05:56.239Z,4.36
2023-12-23T02:07:29.849Z,4.32
2023-12-23T02:09:03.955Z,4.30
2023-12-23T02:10:36.334Z,4.28
2023-12-23T02:12:21.401Z,4.28
2023-12-23T02:14:03.242Z,4.26
2023-12-23T02:15:38.453Z,4.09
2023-12-23T02:17:12.234Z,4.28
2023-12-23T02:18:46.703Z,4.31
2023-12-23T02:20:20.104Z,4.25
2023-12-23T02:21:53.989Z,4.16
2023-12-23T02:23:27.425Z,4.19
2023-12-23T02:25:00.094Z,4.23
2023-12-23T02:26:36.181Z,4.27
2023-12-23T02:28:13.533Z,4.28
2023-12-23T02:29:48.641Z,4.23
2023-12-23T02:31:22.552Z,4.13
2023-12-23T02:32:56.515Z,3.97
2023-12-23T02:34:30.614Z,3.78
2023-12-23T02:36:03.806Z,3.69
2023-12-23T02:37:37.431Z,3.60
2023-12-23T02:39:13.691Z,3.52
2023-12-23T02:40:47.559Z,3.18
2023-12-23T02:42:20.826Z,3.30
2023-12-23T02:43:53.118Z,3.27
2023-12-23T02:45:26.448Z,3.26
2023-12-23T02:46:59.868Z,3.22
2023-12-23T02:48:33.290Z,3.20
2023-12-23T02:50:06.550Z,3.16
2023-12-23T02:51:39.783Z,3.10
2023-12-23T02:53:14.729Z,3.16
2023-12-23T02:54:47.083Z,3.18
2023-12-23T02:56:20.433Z,3.20
2023-12-23T02:57:52.737Z,3.21
2023-12-23T02:59:26.243Z,3.23
2023-12-23T03:00:58.826Z,3.16
2023-12-23T03:02:32.125Z,3.13
2023-12-23T03:04:04.524Z,3.17
2023-12-23T03:05:38.272Z,3.16
2023-12-23T03:07:10.886Z,3.16
2023-12-23T03:08:45.479Z,3.16
2023-12-23T03:10:17.877Z,3.18
2023-12-23T03:11:51.239Z,3.18
2023-12-23T03:13:23.452Z,3.11
2023-12-23T03:14:56.764Z,3.15
2023-12-23T03:16:35.168Z,3.11
2023-12-23T03:18:08.672Z,3.07
2023-12-23T03:19:42.267Z,2.97
2023-12-23T03:21:15.654Z,2.98
2023-12-23T03:22:48.110Z,2.94
2023-12-23T03:24:23.012Z,2.92
2023-12-23T03:25:55.470Z,2.90
2023-12-23T03:27:28.950Z,2.87
2023-12-23T03:29:01.197Z,2.79
2023-12-23T03:30:34.779Z,2.72
2023-12-23T03:32:08.640Z,2.65
2023-12-23T03:33:43.284Z,2.63
2023-12-23T03:35:16.711Z,2.60
2023-12-23T03:36:49.133Z,2.60
2023-12-23T03:38:23.302Z,2.60
2023-12-23T03:39:58.162Z,2.62
2023-12-23T03:41:31.433Z,2.54
2023-12-23T03:43:03.939Z,2.64
2023-12-23T03:44:37.243Z,2.33
2023-12-23T03:46:10.805Z,2.63
2023-12-23T03:47:44.145Z,2.61
2023-12-23T03:49:16.781Z,2.63
2023-12-23T03:50:50.034Z,2.59
2023-12-23T03:52:22.227Z,2.63
2023-12-23T03:53:55.697Z,2.60
2023-12-23T03:55:33.902Z,2.59
2023-12-23T03:57:07.449Z,2.56
2023-12-23T03:58:40.762Z,2.53
2023-12-23T04:00:15.136Z,2.49
2023-12-23T04:01:47.535Z,2.47
2023-12-23T04:03:20.968Z,2.41
2023-12-23T04:04:53.225Z,2.32
2023-12-23T04:06:28.982Z,2.24
2023-12-23T04:08:01.623Z,2.32
2023-12-23T04:09:35.119Z,2.30
2023-12-23T04:11:09.104Z,2.26
2023-12-23T04:12:42.501Z,2.28
2023-12-23T04:14:14.921Z,2.24
2023-12-23T04:15:48.561Z,2.28
2023-12-23T04:17:21.740Z,2.29
2023-12-23T04:18:55.340Z,2.28
2023-12-23T04:20:29.451Z,2.30
2023-12-23T04:22:03.391Z,2.31
2023-12-23T04:23:36.675Z,2.32
2023-12-23T04:25:09.338Z,2.36
2023-12-23T04:26:44.555Z,2.35
2023-12-23T04:28:21.768Z,2.28
2023-12-23T04:29:55.126Z,2.20
2023-12-23T04:31:27.490Z,2.30
2023-12-23T04:33:01.177Z,2.17
2023-12-23T04:34:33.936Z,2.29
2023-12-23T04:36:08.463Z,2.29
2023-12-23T04:37:43.214Z,2.31
2023-12-23T04:39:17.854Z,2.30
2023-12-23T04:40:50.470Z,2.33
2023-12-23T04:42:25.166Z,2.33
2023-12-23T04:43:58.109Z,2.28
2023-12-23T04:45:31.669Z,2.23
2023-12-23T04:47:04.202Z,2.15
2023-12-23T04:48:37.471Z,2.15
2023-12-23T04:50:11.108Z,2.05
2023-12-23T04:51:45.628Z,2.01
2023-12-23T04:53:19.177Z,1.95
2023-12-23T04:54:51.399Z,1.88
2023-12-23T04:56:24.870Z,1.75
2023-12-23T04:57:58.651Z,1.67
2023-12-23T04:59:31.908Z,1.67
2023-12-23T05:01:04.397Z,1.59
2023-12-23T05:02:37.955Z,1.53
2023-12-23T05:04:10.291Z,1.54
2023-12-23T05:05:43.948Z,1.54
2023-12-23T05:07:16.228Z,1.53
2023-12-23T05:08:49.821Z,1.49
2023-12-23T05:10:22.194Z,1.47
2023-12-23T05:11:55.549Z,1.49
2023-12-23T05:13:29.213Z,1.48
2023-12-23T05:15:02.698Z,1.50
2023-12-23T05:16:35.041Z,1.34
2023-12-23T05:18:08.413Z,1.51
2023-12-23T05:19:41.822Z,1.49
2023-12-23T05:21:15.235Z,1.48
2023-12-23T05:22:47.892Z,1.52
2023-12-23T05:24:21.381Z,1.57
2023-12-23T05:25:54.632Z,1.53
2023-12-23T05:27:28.919Z,1.52
2023-12-23T05:29:02.758Z,1.53
2023-12-23T05:30:37.538Z,1.57
2023-12-23T05:32:09.790Z,1.54
2023-12-23T05:33:44.278Z,1.52
2023-12-23T05:35:16.730Z,1.54
2023-12-23T05:36:49.978Z,1.52
2023-12-23T05:38:22.239Z,1.52
2023-12-23T05:39:55.658Z,1.54
2023-12-23T05:41:28.051Z,1.44
2023-12-23T05:43:04.707Z,1.59
2023-12-23T05:44:38.418Z,1.63
2023-12-23T05:46:11.850Z,1.60
2023-12-23T05:47:44.670Z,1.65
2023-12-23T05:49:20.398Z,1.63
2023-12-23T05:50:53.880Z,1.70
2023-12-23T05:52:27.363Z,1.65
2023-12-23T05:53:59.744Z,1.46
2023-12-23T05:55:34.135Z,1.52
2023-12-23T05:57:06.442Z,1.57
2023-12-23T05:58:39.836Z,1.52
2023-12-23T06:00:15.240Z,1.53
2023-12-23T06:01:48.584Z,1.54
2023-12-23T06:03:20.850Z,1.52
2023-12-23T06:04:54.558Z,1.51
2023-12-23T06:06:27.076Z,1.49
2023-12-23T06:08:00.422Z,1.53
2023-12-23T06:09:32.723Z,1.56
2023-12-23T06:11:07.699Z,1.55
2023-12-23T06:12:41.113Z,1.54
2023-12-23T06:14:13.424Z,1.56
2023-12-23T06:15:48.110Z,1.60
2023-12-23T06:17:20.472Z,1.63
2023-12-23T06:18:54.351Z,1.63
2023-12-23T06:20:26.864Z,1.67
2023-12-23T06:22:00.223Z,1.72
2023-12-23T06:23:32.599Z,1.77
2023-12-23T06:25:07.789Z,1.80
2023-12-23T06:26:42.224Z,1.85
2023-12-23T06:28:16.827Z,1.86
2023-12-23T06:29:49.294Z,1.78
2023-12-23T06:31:25.425Z,1.90
2023-12-23T06:32:57.767Z,1.90
2023-12-23T06:34:31.108Z,1.87
2023-12-23T06:36:03.976Z,1.92
2023-12-23T06:37:37.419Z,1.91
2023-12-23T06:39:09.737Z,1.88
2023-12-23T06:40:43.123Z,2.04
2023-12-23T06:42:15.364Z,2.08
2023-12-23T06:43:52.705Z,2.17
2023-12-23T06:45:26.751Z,2.22
2023-12-23T06:47:00.406Z,2.26
2023-12-23T06:48:34.800Z,2.32
2023-12-23T06:50:08.501Z,2.36
2023-12-23T06:51:41.963Z,2.42
2023-12-23T06:53:14.228Z,2.43
2023-12-23T06:54:47.566Z,2.31
2023-12-23T06:56:22.650Z,2.31
2023-12-23T06:57:56.083Z,2.17
2023-12-23T06:59:29.330Z,2.16
2023-12-23T07:01:01.666Z,2.17
2023-12-23T07:02:36.918Z,2.17
2023-12-23T07:04:09.785Z,2.27
2023-12-23T07:05:43.361Z,2.34
2023-12-23T07:07:15.864Z,2.41
2023-12-23T07:08:49.393Z,2.43
2023-12-23T07:10:22.791Z,2.50
2023-12-23T07:11:55.062Z,2.63
2023-12-23T07:13:28.534Z,2.71
2023-12-23T07:15:01.002Z,2.71
2023-12-23T07:16:34.212Z,2.72
2023-12-23T07:18:08.536Z,2.83
2023-12-23T07:19:41.832Z,2.90
2023-12-23T07:21:14.559Z,2.80
2023-12-23T07:22:48.929Z,2.82
2023-12-23T07:24:21.362Z,2.92
2023-12-23T07:25:54.657Z,3.12
2023-12-23T07:27:28.074Z,3.74
2023-12-23T07:29:00.553Z,4.97
2023-12-23T07:30:33.959Z,5.54
2023-12-23T07:32:07.261Z,5.93
2023-12-23T07:33:42.230Z,6.26
2023-12-23T07:35:14.757Z,6.38
2023-12-23T07:36:48.032Z,6.36
2023-12-23T07:38:20.429Z,6.36
2023-12-23T07:39:54.307Z,6.38
2023-12-23T07:41:26.740Z,6.44
2023-12-23T07:43:00.267Z,6.50
2023-12-23T07:44:37.830Z,6.54
2023-12-23T07:46:11.549Z,6.55
2023-12-23T07:47:43.806Z,6.55
2023-12-23T07:49:18.702Z,6.56
2023-12-23T07:50:52.037Z,6.51
2023-12-23T07:52:24.687Z,6.46
2023-12-23T07:53:58.143Z,6.40
2023-12-23T07:55:30.605Z,6.32
2023-12-23T07:57:03.918Z,6.28
2023-12-23T07:58:38.368Z,5.94
2023-12-23T08:00:13.082Z,6.16
2023-12-23T08:01:49.639Z,6.08
2023-12-23T08:03:25.512Z,5.96
2023-12-23T08:04:59.464Z,5.98
2023-12-23T08:06:32.952Z,5.94
2023-12-23T08:08:06.647Z,6.01
2023-12-23T08:09:39.963Z,5.86
2023-12-23T08:11:12.905Z,6.03
2023-12-23T08:12:51.451Z,5.93
2023-12-23T08:14:23.847Z,5.92
2023-12-23T08:15:57.259Z,5.94
2023-12-23T08:17:30.316Z,5.90
2023-12-23T08:19:03.661Z,5.87
2023-12-23T08:20:37.889Z,5.72
2023-12-23T08:22:11.614Z,5.82
2023-12-23T08:23:44.078Z,5.80
2023-12-23T08:25:17.562Z,5.77
2023-12-23T08:26:49.834Z,5.68
2023-12-23T08:28:23.201Z,5.62
2023-12-23T08:29:55.844Z,5.69
2023-12-23T08:31:29.197Z,5.68
2023-12-23T08:33:01.494Z,5.68
2023-12-23T08:34:34.798Z,5.68
2023-12-23T08:36:09.045Z,5.65
2023-12-23T08:37:42.510Z,5.66
2023-12-23T08:39:14.850Z,5.71
2023-12-23T08:40:48.272Z,5.74
2023-12-23T08:42:20.724Z,5.72
2023-12-23T08:43:54.032Z,5.74
2023-12-23T08:45:27.525Z,5.77
2023-12-23T08:46:59.724Z,5.77
2023-12-23T08:48:33.160Z,5.76
2023-12-23T08:50:06.490Z,5.72
2023-12-23T08:51:41.162Z,5.66
2023-12-23T08:53:13.576Z,5.66
2023-12-23T08:54:46.959Z,5.43
2023-12-23T08:56:19.452Z,5.71
2023-12-23T08:57:52.956Z,5.70
2023-12-23T08:59:25.603Z,5.66
2023-12-23T09:00:59.944Z,5.69
2023-12-23T09:02:32.444Z,5.74
2023-12-23T09:04:06.013Z,5.77
2023-12-23T09:05:39.382Z,5.76
2023-12-23T09:07:13.768Z,5.76
2023-12-23T09:08:47.332Z,5.65
2023-12-23T09:10:19.799Z,5.77
2023-12-23T09:11:53.270Z,5.82
2023-12-23T09:13:25.676Z,5.90
2023-12-23T09:14:58.997Z,5.97
2023-12-23T09:16:31.312Z,6.06
2023-12-23T09:18:05.031Z,6.09
2023-12-23T09:19:37.387Z,5.91
2023-12-23T09:21:10.865Z,6.11
2023-12-23T09:22:45.460Z,6.00
2023-12-23T09:24:19.772Z,6.11
2023-12-23T09:25:54.071Z,6.10
2023-12-23T09:27:27.984Z,6.08
2023-12-23T09:29:01.382Z,6.10
2023-12-23T09:30:33.700Z,6.10
2023-12-23T09:32:07.698Z,6.08
2023-12-23T09:33:40.929Z,6.11
2023-12-23T09:35:14.436Z,5.99
2023-12-23T09:36:47.879Z,6.04
2023-12-23T09:38:22.693Z,6.17
2023-12-23T09:39:55.800Z,6.14
2023-12-23T09:41:29.194Z,6.19
2023-12-23T09:43:01.651Z,6.15
2023-12-23T09:44:35.637Z,6.24
2023-12-23T09:46:09.375Z,6.24
2023-12-23T09:47:44.055Z,6.27
2023-12-23T09:49:16.552Z,6.37
2023-12-23T09:50:49.968Z,6.37
2023-12-23T09:52:22.754Z,6.36
2023-12-23T09:53:59.803Z,6.35
2023-12-23T09:55:32.816Z,6.35
2023-12-23T09:57:06.303Z,6.34
2023-12-23T09:58:38.578Z,6.35
2023-12-23T10:00:13.812Z,6.37
2023-12-23T10:01:46.727Z,6.37
2023-12-23T10:03:23.169Z,6.39
2023-12-23T10:04:55.670Z,6.41
2023-12-23T10:06:29.239Z,6.40
2023-12-23T10:08:01.661Z,6.44
2023-12-23T10:09:36.426Z,6.45
2023-12-23T10:11:08.726Z,6.46
2023-12-23T10:12:42.463Z,6.54
2023-12-23T10:14:14.872Z,6.53
2023-12-23T10:15:48.349Z,6.54
2023-12-23T10:17:20.683Z,6.61
2023-12-23T10:18:54.538Z,6.67
2023-12-23T10:20:27.743Z,6.66
2023-12-23T10:22:04.991Z,6.72
2023-12-23T10:23:38.938Z,6.68
2023-12-23T10:25:12.957Z,6.76
2023-12-23T10:26:48.180Z,6.83
2023-12-23T10:28:22.544Z,6.86
2023-12-23T10:29:58.447Z,6.85
2023-12-23T10:31:32.658Z,6.88
2023-12-23T10:33:08.687Z,6.95
2023-12-23T10:34:44.732Z,6.96
2023-12-23T10:36:21.606Z,6.97
2023-12-23T10:37:58.068Z,6.98
2023-12-23T10:39:36.416Z,7.04
2023-12-23T10:41:19.291Z,7.06
2023-12-23T10:42:53.684Z,7.06
2023-12-23T10:44:29.057Z,7.02
2023-12-23T10:46:02.949Z,6.95
2023-12-23T10:47:37.355Z,6.92
2023-12-23T10:49:11.887Z,6.80
2023-12-23T10:50:48.334Z,6.61
2023-12-23T10:52:21.417Z,6.58
2023-12-23T10:53:56.302Z,6.54
2023-12-23T10:55:30.777Z,6.52
2023-12-23T10:57:07.371Z,6.52
2023-12-23T10:58:40.835Z,6.52
2023-12-23T11:00:15.095Z,6.51
2023-12-23T11:01:49.072Z,6.52
2023-12-23T11:03:22.857Z,6.45
2023-12-23T11:04:57.044Z,6.55
2023-12-23T11:06:32.949Z,6.59
2023-12-23T11:08:14.161Z,6.63
2023-12-23T11:09:54.019Z,6.73
2023-12-23T11:11:27.588Z,6.76
2023-12-23T11:13:02.669Z,6.82
2023-12-23T11:14:35.024Z,6.79
2023-12-23T11:16:11.915Z,6.82
2023-12-23T11:17:44.777Z,6.74
2023-12-23T11:19:19.149Z,6.49
2023-12-23T11:20:51.703Z,6.69
2023-12-23T11:22:26.820Z,6.74
2023-12-23T11:24:01.081Z,6.81
2023-12-23T11:25:39.583Z,6.83
2023-12-23T11:27:30.284Z,6.85
2023-12-23T11:29:07.832Z,6.84
2023-12-23T11:30:47.928Z,6.85
2023-12-23T11:32:21.723Z,6.76
2023-12-23T11:33:54.450Z,6.82
2023-12-23T11:35:28.007Z,6.76
2023-12-23T11:37:00.435Z,6.76
2023-12-23T11:38:48.365Z,6.74
2023-12-23T11:40:21.691Z,6.74
2023-12-23T11:41:55.040Z,6.76
2023-12-23T11:43:27.298Z,6.77
2023-12-23T11:45:02.134Z,6.81
2023-12-23T11:46:37.400Z,6.82
2023-12-23T11:48:11.251Z,6.79
2023-12-23T11:49:46.173Z,6.74
2023-12-23T11:51:18.704Z,6.74
2023-12-23T11:52:52.863Z,6.74
2023-12-23T11:54:25.547Z,6.65
2023-12-23T11:55:59.080Z,6.64
2023-12-23T11:57:31.990Z,6.62
2023-12-23T11:59:06.765Z,6.52
2023-12-23T12:00:42.072Z,6.65
2023-12-23T12:02:15.503Z,6.57
2023-12-23T12:03:48.717Z,6.74
2023-12-23T12:05:22.337Z,6.73
2023-12-23T12:06:56.406Z,6.68
2023-12-23T12:08:31.784Z,6.70
2023-12-23T12:10:05.358Z,6.67
2023-12-23T12:11:38.993Z,6.35
2023-12-23T12:13:12.438Z,6.69
2023-12-23T12:14:44.904Z,6.68
2023-12-23T12:16:19.868Z,6.33
2023-12-23T12:17:53.120Z,6.66
2023-12-23T12:19:26.741Z,6.69
2023-12-23T12:20:59.332Z,6.66
2023-12-23T12:22:33.480Z,6.45
2023-12-23T12:24:06.742Z,6.62
2023-12-23T12:25:40.044Z,6.57
2023-12-23T12:27:12.279Z,6.61
2023-12-23T12:28:47.877Z,6.63
2023-12-23T12:30:20.501Z,6.61
2023-12-23T12:31:56.065Z,6.59
2023-12-23T12:33:28.427Z,6.62
2023-12-23T12:35:05.119Z,6.67
2023-12-23T12:36:37.567Z,6.71
2023-12-23T12:38:17.238Z,6.69
2023-12-23T12:39:56.584Z,6.82
2023-12-23T12:41:30.346Z,6.76
2023-12-23T12:43:06.900Z,6.90
2023-12-23T12:44:41.931Z,6.78
2023-12-23T12:46:16.304Z,6.89
2023-12-23T12:47:52.423Z,6.85
2023-12-23T12:49:25.406Z,6.82
2023-12-23T12:50:59.230Z,6.80
2023-12-23T12:52:31.958Z,6.79
2023-12-23T12:54:06.209Z,6.79
2023-12-23T12:55:38.585Z,6.77
2023-12-23T12:57:11.860Z,6.76
2023-12-23T12:58:46.283Z,6.69
2023-12-23T13:00:22.319Z,6.73
2023-12-23T13:01:55.381Z,6.70
2023-12-23T13:03:30.149Z,6.60
2023-12-23T13:05:02.348Z,6.67
2023-12-23T13:06:35.700Z,6.71
2023-12-23T13:08:08.434Z,6.71
2023-12-23T13:09:42.024Z,6.54
2023-12-23T13:11:15.014Z,6.69
2023-12-23T13:12:48.562Z,6.72
2023-12-23T13:14:22.207Z,6.74
2023-12-23T13:15:54.416Z,6.76
2023-12-23T13:17:27.931Z,6.76
2023-12-23T13:19:01.916Z,6.58
2023-12-23T13:20:35.420Z,6.86
2023-12-23T13:22:08.686Z,6.87
2023-12-23T13:23:41.009Z,6.86
2023-12-23T13:25:14.562Z,6.87
2023-12-23T13:26:46.949Z,6.81
2023-12-23T13:28:20.449Z,6.83
2023-12-23T13:29:52.792Z,6.85
2023-12-23T13:31:26.033Z,6.82
2023-12-23T13:32:58.485Z,6.74
2023-12-23T13:34:33.537Z,6.91
2023-12-23T13:36:06.319Z,6.85
2023-12-23T13:37:41.456Z,6.94
2023-12-23T13:39:14.493Z,6.98
2023-12-23T13:40:49.797Z,6.88
2023-12-23T13:42:22.607Z,7.06
2023-12-23T13:43:56.380Z,7.05
2023-12-23T13:45:29.415Z,7.05
2023-12-23T13:47:03.736Z,7.06
2023-12-23T13:48:37.128Z,7.07
2023-12-23T13:50:12.253Z,7.07
2023-12-23T13:51:45.766Z,7.09
2023-12-23T13:53:18.114Z,7.07
2023-12-23T13:54:51.465Z,7.01
2023-12-23T13:56:23.744Z,7.14
2023-12-23T13:57:57.251Z,7.17
2023-12-23T13:59:29.529Z,7.19
2023-12-23T14:01:03.300Z,7.22
2023-12-23T14:02:35.624Z,7.23
2023-12-23T14:04:08.911Z,7.22
2023-12-23T14:05:44.227Z,7.21
2023-12-23T14:07:17.556Z,7.19
2023-12-23T14:08:49.818Z,7.13
2023-12-23T14:10:23.165Z,7.21
2023-12-23T14:11:55.462Z,7.22
2023-12-23T14:13:28.720Z,7.23
2023-12-23T14:15:01.158Z,7.24
2023-12-23T14:16:35.792Z,7.23
2023-12-23T14:18:08.815Z,7.13
2023-12-23T14:19:42.087Z,7.17
2023-12-23T14:21:15.813Z,7.03
2023-12-23T14:22:49.412Z,7.11
2023-12-23T14:24:21.979Z,7.11
2023-12-23T14:25:55.287Z,7.10
2023-12-23T14:27:28.640Z,7.03
2023-12-23T14:29:01.100Z,7.05
2023-12-23T14:30:35.617Z,7.04
2023-12-23T14:32:07.889Z,6.91
2023-12-23T14:33:43.458Z,6.96
2023-12-23T14:35:16.273Z,6.94
2023-12-23T14:36:50.867Z,6.89
2023-12-23T14:38:23.195Z,6.85
2023-12-23T14:39:56.520Z,6.85
2023-12-23T14:41:29.945Z,6.82
2023-12-23T14:43:03.446Z,6.81
2023-12-23T14:44:36.277Z,6.78
2023-12-23T14:46:10.221Z,6.74
2023-12-23T14:47:43.502Z,6.70
2023-12-23T14:49:17.407Z,6.71
2023-12-23T14:50:49.712Z,6.61
2023-12-23T14:52:24.459Z,6.66
2023-12-23T14:53:57.026Z,6.55
2023-12-23T14:55:30.358Z,6.65
2023-12-23T14:57:02.791Z,6.63
2023-12-23T14:58:36.241Z,6.56
2023-12-23T15:00:11.056Z,6.54
2023-12-23T15:01:44.699Z,6.50
2023-12-23T15:03:18.275Z,6.48
2023-12-23T15:04:50.738Z,6.48
2023-12-23T15:06:24.258Z,6.49
2023-12-23T15:07:58.243Z,6.27
2023-12-23T15:09:31.797Z,6.23
2023-12-23T15:11:05.437Z,6.43
2023-12-23T15:12:39.415Z,6.36
2023-12-23T15:14:11.728Z,6.40
2023-12-23T15:15:45.192Z,6.39
2023-12-23T15:17:18.088Z,6.37
2023-12-23T15:18:53.675Z,6.38
2023-12-23T15:20:26.869Z,6.38
2023-12-23T15:22:00.538Z,6.36
2023-12-23T15:23:35.349Z,6.37
2023-12-23T15:25:09.333Z,6.29
2023-12-23T15:26:41.951Z,6.35
2023-12-23T15:28:15.238Z,6.33
2023-12-23T15:29:47.556Z,6.29
2023-12-23T15:31:21.040Z,6.25
2023-12-23T15:32:53.765Z,6.29
2023-12-23T15:34:27.423Z,6.27
2023-12-23T15:35:59.713Z,6.22
2023-12-23T15:37:33.242Z,6.22
2023-12-23T15:39:06.932Z,6.18
2023-12-23T15:40:40.298Z,6.07
2023-12-23T15:42:13.559Z,6.20
2023-12-23T15:43:46.204Z,6.12
2023-12-23T15:45:19.659Z,6.12
2023-12-23T15:46:51.969Z,6.05
2023-12-23T15:48:25.746Z,6.03
2023-12-23T15:49:58.172Z,5.96
2023-12-23T15:51:31.544Z,5.95
2023-12-23T15:53:04.761Z,5.50
2023-12-23T15:54:39.716Z,5.89
2023-12-23T15:56:12.473Z,5.82
2023-12-23T15:57:45.779Z,5.77
2023-12-23T15:59:19.005Z,5.76
2023-12-23T16:00:51.397Z,5.73
2023-12-23T16:02:24.739Z,5.60
2023-12-23T16:03:57.104Z,5.65
2023-12-23T16:05:30.398Z,5.62
2023-12-23T16:07:03.053Z,5.60
2023-12-23T16:08:36.518Z,5.52
2023-12-23T16:10:10.737Z,5.57
2023-12-23T16:11:44.109Z,5.55
2023-12-23T16:13:16.502Z,5.53
2023-12-23T16:14:49.840Z,5.39
2023-12-23T16:16:22.260Z,5.38
2023-12-23T16:17:55.558Z,5.40
2023-12-23T16:19:27.819Z,5.35
2023-12-23T16:21:01.298Z,5.40
2023-12-23T16:22:35.408Z,5.41
2023-12-23T16:24:09.075Z,5.45
2023-12-23T16:25:42.786Z,5.46
2023-12-23T16:27:16.197Z,5.48
2023-12-23T16:28:48.559Z,5.38
2023-12-23T16:30:21.852Z,5.37
2023-12-23T16:31:54.195Z,5.57
2023-12-23T16:33:27.640Z,5.59
2023-12-23T16:34:59.998Z,5.61
2023-12-23T16:36:33.312Z,5.64
2023-12-23T16:38:05.690Z,5.63
2023-12-23T16:39:39.147Z,5.69
2023-12-23T16:41:13.295Z,5.46
2023-12-23T16:42:46.665Z,5.73
2023-12-23T16:44:19.180Z,5.75
2023-12-23T16:45:52.578Z,5.72
2023-12-23T16:47:24.872Z,5.77
2023-12-23T16:48:58.382Z,5.79
2023-12-23T16:50:30.741Z,5.84
2023-12-23T16:52:04.270Z,5.86
2023-12-23T16:53:38.290Z,5.87
2023-12-23T16:55:12.019Z,5.87
2023-12-23T16:56:46.835Z,5.88
2023-12-23T16:58:20.479Z,5.85
2023-12-23T16:59:53.919Z,5.91
2023-12-23T17:01:26.286Z,5.90
2023-12-23T17:02:59.561Z,5.90
2023-12-23T17:04:31.926Z,5.91
2023-12-23T17:06:05.287Z,5.90
2023-12-23T17:07:37.556Z,5.90
2023-12-23T17:09:12.055Z,5.87
2023-12-23T17:10:44.421Z,5.84
2023-12-23T17:12:19.194Z,5.77
2023-12-23T17:13:52.437Z,5.75
2023-12-23T17:15:25.237Z,5.72
2023-12-23T17:16:59.721Z,5.64
2023-12-23T17:18:33.419Z,5.59
2023-12-23T17:20:08.082Z,5.58
2023-12-23T17:21:41.399Z,5.53
2023-12-23T17:23:13.817Z,5.49
2023-12-23T17:24:47.223Z,5.44
2023-12-23T17:26:19.838Z,5.42
2023-12-23T17:27:54.574Z,5.37
2023-12-23T17:29:27.075Z,5.36
2023-12-23T17:31:00.563Z,5.34
2023-12-23T17:32:33.880Z,5.33
2023-12-23T17:34:07.376Z,5.29
2023-12-23T17:35:40.724Z,5.24
2023-12-23T17:37:14.202Z,5.23
2023-12-23T17:38:47.460Z,5.15
2023-12-23T17:40:20.758Z,5.13
2023-12-23T17:41:53.517Z,4.94
2023-12-23T17:43:28.175Z,5.01
2023-12-23T17:45:00.462Z,5.00
2023-12-23T17:46:33.758Z,4.97
2023-12-23T17:48:07.768Z,4.93
2023-12-23T17:49:41.011Z,4.87
2023-12-23T17:51:13.424Z,4.82
2023-12-23T17:52:46.768Z,4.79
2023-12-23T17:54:20.179Z,4.77
2023-12-23T17:55:52.823Z,4.74
2023-12-23T17:57:27.556Z,4.71
2023-12-23T17:59:01.334Z,4.74
2023-12-23T18:00:34.781Z,4.74
2023-12-23T18:02:07.078Z,4.63
2023-12-23T18:03:40.332Z,4.72
2023-12-23T18:05:12.860Z,4.51
2023-12-23T18:06:46.275Z,4.64
2023-12-23T18:08:19.578Z,4.59
2023-12-23T18:09:52.049Z,4.53
2023-12-23T18:11:25.501Z,4.51
2023-12-23T18:13:00.965Z,4.49
2023-12-23T18:14:36.049Z,4.28
2023-12-23T18:16:08.907Z,4.39
2023-12-23T18:17:43.040Z,4.27
2023-12-23T18:19:15.599Z,3.96
2023-12-23T18:20:48.839Z,4.24
2023-12-23T18:22:21.792Z,4.14
2023-12-23T18:23:55.055Z,4.10
2023-12-23T18:25:27.730Z,4.15
2023-12-23T18:27:01.491Z,4.18
2023-12-23T18:28:33.917Z,4.16
2023-12-23T18:30:09.957Z,4.20
2023-12-23T18:31:43.358Z,4.14
2023-12-23T18:33:17.445Z,4.17
2023-12-23T18:34:50.214Z,4.17
2023-12-23T18:36:23.647Z,4.18
2023-12-23T18:37:56.122Z,4.19
2023-12-23T18:39:29.409Z,3.94
2023-12-23T18:41:01.644Z,4.09
2023-12-23T18:42:34.860Z,4.08
2023-12-23T18:44:07.520Z,4.02
2023-12-23T18:45:42.157Z,3.96
2023-12-23T18:47:14.428Z,3.95
2023-12-23T18:48:48.568Z,3.93
2023-12-23T18:50:21.312Z,3.94
2023-12-23T18:51:54.769Z,3.90
2023-12-23T18:53:27.094Z,3.91
2023-12-23T18:55:00.457Z,3.86
2023-12-23T18:56:33.141Z,3.88
2023-12-23T18:58:08.519Z,3.88
2023-12-23T18:59:41.978Z,3.84
2023-12-23T19:01:15.783Z,3.76
2023-12-23T19:02:49.932Z,3.82
2023-12-23T19:04:22.440Z,3.86
2023-12-23T19:05:58.553Z,3.89
2023-12-23T19:07:30.876Z,3.87
2023-12-23T19:09:04.361Z,3.90
2023-12-23T19:10:36.584Z,3.54
2023-12-23T19:12:10.644Z,3.89
2023-12-23T19:13:42.811Z,4.03
2023-12-23T19:15:16.356Z,3.92
2023-12-23T19:16:50.618Z,4.07
2023-12-23T19:18:24.570Z,4.07
2023-12-23T19:19:59.123Z,4.11
2023-12-23T19:21:34.269Z,4.13
2023-12-23T19:23:08.859Z,4.09
2023-12-23T19:24:42.402Z,4.15
2023-12-23T19:26:25.585Z,4.11
2023-12-23T19:27:58.072Z,4.19
2023-12-23T19:29:31.498Z,4.13
2023-12-23T19:31:05.096Z,4.06
2023-12-23T19:32:41.738Z,4.04
2023-12-23T19:34:14.281Z,3.97
2023-12-23T19:35:48.637Z,4.00
2023-12-23T19:37:21.048Z,3.97
2023-12-23T19:38:56.014Z,3.97
2023-12-23T19:40:28.416Z,4.00
2023-12-23T19:42:02.867Z,3.98
2023-12-23T19:43:35.214Z,3.99
2023-12-23T19:45:09.732Z,3.95
2023-12-23T19:46:42.228Z,3.94
2023-12-23T19:48:25.850Z,3.86
2023-12-23T19:50:01.140Z,3.82
2023-12-23T19:51:34.833Z,3.77
2023-12-23T19:53:07.401Z,3.69
2023-12-23T19:54:40.694Z,3.60
2023-12-23T19:56:13.926Z,3.66
2023-12-23T19:57:47.246Z,3.64
2023-12-23T19:59:19.786Z,3.71
2023-12-23T20:00:53.089Z,3.70
2023-12-23T20:02:26.009Z,3.63
2023-12-23T20:04:00.820Z,3.67
2023-12-23T20:05:35.118Z,3.69
2023-12-23T20:07:11.069Z,3.58
2023-12-23T20:08:43.437Z,3.59
2023-12-23T20:10:16.855Z,3.57
2023-12-23T20:11:49.169Z,3.58
2023-12-23T20:13:42.527Z,3.57
2023-12-23T20:15:16.855Z,3.41
2023-12-23T20:16:51.994Z,3.20
2023-12-23T20:18:28.707Z,3.49
2023-12-23T20:20:03.447Z,3.55
2023-12-23T20:21:38.146Z,3.50
2023-12-23T20:23:10.410Z,3.60
2023-12-23T20:24:43.691Z,3.61
2023-12-23T20:26:16.150Z,3.48
2023-12-23T20:27:49.557Z,3.55
2023-12-23T20:29:22.354Z,3.52
2023-12-23T20:30:55.649Z,3.53
2023-12-23T20:32:28.818Z,3.48
2023-12-23T20:34:04.714Z,3.61
2023-12-23T20:35:38.477Z,3.66
2023-12-23T20:37:12.875Z,3.67
2023-12-23T20:38:45.264Z,3.60
2023-12-23T20:40:18.786Z,3.69
2023-12-23T20:41:51.066Z,3.70
2023-12-23T20:43:27.641Z,3.62
2023-12-23T20:45:00.933Z,3.62
2023-12-23T20:46:33.288Z,3.64
2023-12-23T20:48:07.343Z,3.66